Time;durP1;ratioP1;P1;durP2;ratioP2;P2;SDS_P1;SDS_P2;PMS_P1;PMS_P2;Temp;Humidity;BMP_temperature;BMP_pressure;BME280_temperature;BME280_humidity;BME280_pressure;Samples;Min_cycle;Max_cycle;Signal;HPM_P1;HPM_P2
2023/09/08 00:01:17;;;;;;;10.93;9.40;;;;;;;19.25;100.00;101582.88;5070355;28;20520;-56
2023/09/08 00:03:45;;;;;;;11.68;9.63;;;;;;;19.19;100.00;101574.59;5069040;28;20060;-55
2023/09/08 00:06:14;;;;;;;12.82;9.77;;;;;;;19.19;100.00;101574.59;5069777;28;20059;-57
2023/09/08 00:08:43;;;;;;;11.60;9.05;;;;;;;19.20;100.00;101578.94;5067519;28;20048;-56
2023/09/08 00:11:12;;;;;;;10.52;8.60;;;;;;;19.16;100.00;101581.03;5069341;28;20046;-56
2023/09/08 00:13:41;;;;;;;12.70;10.00;;;;;;;19.07;100.00;101577.38;5071419;28;20431;-57
2023/09/08 00:16:10;;;;;;;12.13;9.68;;;;;;;19.04;100.00;101580.31;5070061;28;20542;-56
2023/09/08 00:18:39;;;;;;;12.20;9.15;;;;;;;19.07;100.00;101584.53;5068615;28;20047;-56
2023/09/08 00:21:07;;;;;;;13.35;9.05;;;;;;;18.99;100.00;101582.56;5069620;28;20052;-56
2023/09/08 00:23:38;;;;;;;10.43;8.60;;;;;;;18.93;100.00;101583.09;5066589;28;20063;-56
2023/09/08 00:26:07;;;;;;;12.88;9.05;;;;;;;18.88;100.00;101583.53;5070061;28;20048;-56
2023/09/08 00:28:37;;;;;;;11.15;8.60;;;;;;;18.80;100.00;101580.66;5072920;28;20476;-56
2023/09/08 00:31:05;;;;;;;12.00;8.95;;;;;;;18.80;100.00;101580.66;5072793;28;20526;-55
2023/09/08 00:33:34;;;;;;;14.50;9.50;;;;;;;18.72;100.00;101580.50;5068736;28;20060;-56
2023/09/08 00:36:03;;;;;;;13.10;9.00;;;;;;;18.72;100.00;101588.50;5069376;28;20539;-57
2023/09/08 00:38:31;;;;;;;12.95;8.57;;;;;;;18.70;100.00;101587.78;5068949;28;20375;-57
2023/09/08 00:41:00;;;;;;;13.48;9.18;;;;;;;18.59;100.00;101581.56;5070190;28;20534;-57
2023/09/08 00:43:29;;;;;;;13.40;9.15;;;;;;;18.52;100.00;101584.91;5069344;28;20040;-57
2023/09/08 00:46:00;;;;;;;11.88;8.90;;;;;;;18.48;100.00;101580.84;5068987;28;20442;-57
2023/09/08 00:48:30;;;;;;;12.13;8.93;;;;;;;18.44;100.00;101574.09;5067866;28;20087;-57
2023/09/08 00:50:58;;;;;;;12.18;8.73;;;;;;;18.50;100.00;101589.50;5068795;28;20467;-56
2023/09/08 00:53:27;;;;;;;12.48;9.13;;;;;;;18.48;100.00;101576.34;5067356;28;20384;-57
2023/09/08 00:55:57;;;;;;;12.43;9.15;;;;;;;18.39;100.00;101583.31;5071739;28;20055;-56
2023/09/08 00:58:26;;;;;;;11.93;8.90;;;;;;;18.33;100.00;101581.19;5069230;28;20064;-57
2023/09/08 01:00:56;;;;;;;11.27;8.70;;;;;;;18.27;100.00;101581.72;5067257;28;20541;-57
2023/09/08 01:03:26;;;;;;;11.07;8.45;;;;;;;18.26;100.00;101580.03;5068144;28;20050;-57
2023/09/08 01:05:56;;;;;;;11.30;8.48;;;;;;;18.23;100.00;101578.47;5068949;28;20053;-57
2023/09/08 01:08:25;;;;;;;11.38;8.55;;;;;;;18.23;100.00;101577.63;5066377;28;20048;-57
2023/09/08 01:10:54;;;;;;;12.77;9.05;;;;;;;18.18;100.00;101575.34;5067796;28;20094;-57
2023/09/08 01:13:22;;;;;;;12.00;9.02;;;;;;;18.14;100.00;101571.28;5069060;28;20060;-57
2023/09/08 01:15:51;;;;;;;14.10;9.02;;;;;;;18.10;100.00;101574.34;5071893;28;20074;-57
2023/09/08 01:18:19;;;;;;;11.70;8.95;;;;;;;18.04;100.00;101575.72;5069460;28;20132;-57
2023/09/08 01:21:09;;;;;;;12.15;9.30;;;;;;;18.08;100.00;101574.47;5068449;28;20097;-57
2023/09/08 01:23:52;;;;;;;12.20;9.73;;;;;;;17.99;100.00;101580.59;5065928;28;20133;-57
2023/09/08 01:26:24;;;;;;;11.73;9.90;;;;;;;17.95;100.00;101577.31;5068273;28;20079;-57
2023/09/08 01:28:53;;;;;;;;;;;;;;;17.92;100.00;101574.94;5068811;28;20048;-56
2023/09/08 01:31:21;;;;;;;10.85;8.38;;;;;;;17.93;100.00;101579.28;5068167;28;20371;-57
2023/09/08 01:33:51;;;;;;;13.02;9.52;;;;;;;17.81;100.00;101570.50;5070674;28;20036;-57
2023/09/08 01:36:19;;;;;;;13.32;9.02;;;;;;;17.74;100.00;101567.50;5068076;28;20068;-57
2023/09/08 01:38:48;;;;;;;12.32;9.80;;;;;;;17.73;100.00;101567.63;5066227;28;20490;-56
2023/09/08 01:41:16;;;;;;;11.88;9.10;;;;;;;17.66;100.00;101563.81;5067903;28;20045;-56
2023/09/08 01:43:46;;;;;;;12.73;9.63;;;;;;;17.69;100.00;101567.03;5067918;28;20051;-57
2023/09/08 01:46:14;;;;;;;11.68;8.95;;;;;;;17.67;100.00;101570.78;5068122;28;20049;-57
2023/09/08 01:48:43;;;;;;;14.00;9.45;;;;;;;17.57;100.00;101573.38;5071239;28;20087;-57
2023/09/08 01:51:11;;;;;;;12.55;9.40;;;;;;;17.59;100.00;101568.78;5071217;28;20076;-57
2023/09/08 01:53:40;;;;;;;11.55;8.85;;;;;;;17.53;100.00;101578.13;5068002;28;20044;-57
2023/09/08 01:56:08;;;;;;;11.82;9.00;;;;;;;17.46;100.00;101566.31;5066234;28;20056;-57
2023/09/08 01:58:37;;;;;;;13.07;9.23;;;;;;;17.40;100.00;101561.50;5068952;28;20580;-57
2023/09/08 02:01:07;;;;;;;11.63;9.27;;;;;;;17.41;100.00;101552.56;5071399;28;20784;-57
2023/09/08 02:03:36;;;;;;;13.32;9.90;;;;;;;17.34;100.00;101551.38;5070352;28;20044;-57
2023/09/08 02:06:04;;;;;;;12.73;9.20;;;;;;;17.35;100.00;101559.22;5067760;28;20041;-57
2023/09/08 02:08:32;;;;;;;13.20;9.73;;;;;;;17.35;100.00;101559.22;5065600;28;20056;-56
2023/09/08 02:11:01;;;;;;;13.35;10.02;;;;;;;17.37;100.00;101551.97;5067213;28;20163;-57
2023/09/08 02:13:30;;;;;;;12.05;9.57;;;;;;;17.33;100.00;101561.16;5068164;28;20052;-57
2023/09/08 02:15:58;;;;;;;13.15;9.90;;;;;;;17.31;100.00;101557.78;5071132;28;20060;-56
2023/09/08 02:18:28;;;;;;;13.52;9.98;;;;;;;17.30;100.00;101550.81;5070744;28;20583;-57
2023/09/08 02:20:57;;;;;;;13.63;9.77;;;;;;;17.23;100.00;101557.56;5068728;28;20040;-55
2023/09/08 02:23:26;;;;;;;12.00;9.43;;;;;;;17.20;100.00;101558.66;5065890;28;20052;-57
2023/09/08 02:25:54;;;;;;;13.40;9.98;;;;;;;17.22;100.00;101558.56;5067233;28;20048;-57
2023/09/08 02:28:22;;;;;;;11.98;9.55;;;;;;;17.19;100.00;101556.13;5067456;28;20067;-57
2023/09/08 02:30:51;;;;;;;11.55;9.68;;;;;;;17.18;100.00;101557.13;5067216;28;20511;-57
2023/09/08 02:33:19;;;;;;;11.98;9.68;;;;;;;17.12;100.00;101554.97;5069087;28;20125;-57
2023/09/08 02:35:49;;;;;;;11.63;9.02;;;;;;;17.14;100.00;101553.88;5068428;28;20131;-57
2023/09/08 02:38:17;;;;;;;13.85;10.10;;;;;;;17.17;100.00;101550.13;5064166;28;20140;-58
2023/09/08 02:40:46;;;;;;;12.93;9.73;;;;;;;17.14;100.00;101553.88;5067315;28;20112;-57
2023/09/08 02:43:14;;;;;;;12.48;9.75;;;;;;;17.14;100.00;101556.53;5067273;28;20041;-57
2023/09/08 02:45:43;;;;;;;13.27;9.68;;;;;;;17.15;100.00;101560.00;5066883;28;20070;-57
2023/09/08 02:48:11;;;;;;;13.13;9.60;;;;;;;17.04;100.00;101555.56;5070597;28;20585;-57
2023/09/08 02:50:40;;;;;;;12.48;9.52;;;;;;;17.01;100.00;101547.84;5069759;28;20102;-57
2023/09/08 02:53:10;;;;;;;13.00;9.88;;;;;;;17.02;100.00;101557.53;5068276;28;20431;-57
2023/09/08 02:55:38;;;;;;;12.52;10.10;;;;;;;17.03;100.00;101548.59;5071112;28;20080;-57
2023/09/08 02:58:07;;;;;;;13.07;9.80;;;;;;;16.93;100.00;101552.94;5071916;28;20041;-57
2023/09/08 03:00:35;;;;;;;14.02;10.45;;;;;;;16.89;100.00;101555.00;5070033;28;20036;-57
2023/09/08 03:03:04;;;;;;;13.88;11.05;;;;;;;16.85;100.00;101550.88;5070098;28;20599;-57
2023/09/08 03:05:33;;;;;;;12.57;10.10;;;;;;;16.85;100.00;101550.88;5072964;28;20139;-57
2023/09/08 03:08:02;;;;;;;12.07;10.32;;;;;;;16.84;100.00;101550.03;5069302;28;20532;-56
2023/09/08 03:10:33;;;;;;;13.23;10.07;;;;;;;16.85;100.00;101548.22;5071889;28;20503;-57
2023/09/08 03:13:02;;;;;;;12.97;9.90;;;;;;;16.81;100.00;101552.94;5072134;28;20519;-57
2023/09/08 03:15:31;;;;;;;13.57;9.70;;;;;;;16.81;100.00;101555.59;5070812;28;20056;-57
2023/09/08 03:17:59;;;;;;;14.13;9.88;;;;;;;16.74;100.00;101551.72;5068669;28;20061;-57
2023/09/08 03:20:29;;;;;;;13.38;10.13;;;;;;;16.75;100.00;101552.59;5071003;28;20124;-57
2023/09/08 03:22:57;;;;;;;12.82;10.35;;;;;;;16.75;100.00;101542.81;5069297;28;20049;-57
2023/09/08 03:25:25;;;;;;;13.05;10.38;;;;;;;16.68;100.00;101554.91;5071252;28;20048;-57
2023/09/08 03:27:55;;;;;;;13.05;9.93;;;;;;;16.67;100.00;101547.91;5073959;28;20129;-57
2023/09/08 03:30:24;;;;;;;14.45;10.77;;;;;;;16.67;100.00;101554.03;5074145;28;20531;-57
2023/09/08 03:32:55;;;;;;;12.35;9.90;;;;;;;16.73;100.00;101550.91;5073900;28;20551;-57
2023/09/08 03:35:24;;;;;;;12.40;9.80;;;;;;;16.67;100.00;101551.38;5072531;28;20049;-57
2023/09/08 03:37:52;;;;;;;14.95;10.75;;;;;;;16.65;100.00;101545.38;5068559;28;20048;-57
2023/09/08 03:40:21;;;;;;;12.93;10.32;;;;;;;16.62;100.00;101552.72;5070309;28;20510;-57
2023/09/08 03:42:49;;;;;;;14.35;10.82;;;;;;;16.65;100.00;101552.50;5072920;28;20052;-57
2023/09/08 03:45:19;;;;;;;13.95;10.90;;;;;;;16.65;100.00;101545.38;5073490;28;20418;-57
2023/09/08 03:47:48;;;;;;;14.27;11.02;;;;;;;16.61;100.00;101546.56;5069587;28;20048;-57
2023/09/08 03:50:16;;;;;;;12.50;10.13;;;;;;;16.56;100.00;101544.31;5071974;28;20059;-57
2023/09/08 03:52:45;;;;;;;15.38;10.38;;;;;;;16.52;100.00;101542.00;5068860;28;20538;-57
2023/09/08 03:55:13;;;;;;;14.18;9.77;;;;;;;16.54;100.00;101546.22;5070161;28;20058;-57
2023/09/08 03:57:42;;;;;;;13.98;10.20;;;;;;;16.56;100.00;101543.44;5069714;28;20495;-57
2023/09/08 04:00:11;;;;;;;13.93;9.60;;;;;;;16.53;100.00;101538.38;5069941;28;20056;-57
2023/09/08 04:02:41;;;;;;;13.30;10.23;;;;;;;16.47;100.00;101546.81;5070699;28;20756;-63
2023/09/08 04:05:11;;;;;;;12.98;9.77;;;;;;;16.49;100.00;101544.91;5071487;28;20577;-63
2023/09/08 04:07:39;;;;;;;13.13;10.80;;;;;;;16.41;100.00;101544.66;5066128;28;20467;-63
2023/09/08 04:10:09;;;;;;;13.40;10.50;;;;;;;16.39;100.00;101548.28;5072762;28;20079;-63
2023/09/08 04:12:38;;;;;;;12.77;9.80;;;;;;;16.34;100.00;101550.44;5069296;28;20047;-63
2023/09/08 04:15:09;;;;;;;11.98;9.65;;;;;;;16.34;100.00;101544.28;5069872;28;20088;-63
2023/09/08 04:17:38;;;;;;;14.45;10.68;;;;;;;16.35;100.00;101549.47;5071385;28;20048;-63
2023/09/08 04:20:09;;;;;;;14.95;10.45;;;;;;;16.30;100.00;101543.69;5070397;28;20062;-63
2023/09/08 04:22:37;;;;;;;13.38;9.73;;;;;;;16.23;100.00;101547.78;5067133;28;20045;-57
2023/09/08 04:25:07;;;;;;;14.05;10.02;;;;;;;16.23;100.00;101543.31;5069590;28;20093;-57
2023/09/08 04:27:36;;;;;;;12.50;10.20;;;;;;;16.21;100.00;101539.94;5069013;28;20044;-57
2023/09/08 04:30:06;;;;;;;17.38;9.80;;;;;;;16.21;100.00;101541.75;5069599;28;20041;-57
2023/09/08 04:32:37;;;;;;;13.52;10.32;;;;;;;16.27;100.00;101543.94;5071253;28;20041;-57
2023/09/08 04:35:08;;;;;;;12.98;10.57;;;;;;;16.18;100.00;101542.84;5069949;28;20044;-57
2023/09/08 04:37:38;;;;;;;14.52;10.20;;;;;;;16.14;100.00;101545.84;5065858;28;20850;-57
2023/09/08 04:40:08;;;;;;;12.85;10.15;;;;;;;16.18;100.00;101537.53;5069779;28;20056;-57
2023/09/08 04:42:37;;;;;;;14.80;10.85;;;;;;;16.17;100.00;101538.50;5071324;28;20532;-56
2023/09/08 04:45:07;;;;;;;14.18;10.80;;;;;;;16.14;100.00;101544.06;5072576;28;20055;-57
2023/09/08 04:47:35;;;;;;;15.50;12.65;;;;;;;16.10;100.00;101547.91;5071834;28;20079;-57
2023/09/08 04:50:09;;;;;;;17.75;11.52;;;;;;;16.11;100.00;101540.78;5069446;28;20044;-57
2023/09/08 04:52:37;;;;;;;14.32;11.52;;;;;;;16.08;100.00;101543.69;5066191;28;20041;-57
2023/09/08 04:55:07;;;;;;;14.75;11.23;;;;;;;16.08;100.00;101544.53;5069132;28;20466;-57
2023/09/08 04:57:35;;;;;;;13.15;10.80;;;;;;;16.08;100.00;101549.00;5068376;28;20515;-56
2023/09/08 05:00:04;;;;;;;14.85;11.30;;;;;;;16.05;100.00;101545.59;5068384;28;20056;-57
2023/09/08 05:02:33;;;;;;;16.00;11.50;;;;;;;16.03;100.00;101546.69;5068219;28;20052;-57
2023/09/08 05:05:02;;;;;;;16.08;12.27;;;;;;;16.10;100.00;101547.91;5068824;28;20194;-56
2023/09/08 05:07:32;;;;;;;14.10;11.48;;;;;;;16.04;100.00;101551.84;5066242;28;20056;-57
2023/09/08 05:10:00;;;;;;;16.73;12.38;;;;;;;16.03;100.00;101536.94;5068210;28;20063;-57
2023/09/08 05:12:28;;;;;;;17.30;12.18;;;;;;;16.02;100.00;101540.53;5067963;28;20368;-56
2023/09/08 05:15:00;;;;;;;14.90;12.48;;;;;;;16.00;100.00;101534.50;5068544;28;20570;-57
2023/09/08 05:17:28;;;;;;;14.80;12.25;;;;;;;15.95;100.00;101541.13;5070771;28;20056;-57
2023/09/08 05:19:59;;;;;;;17.15;12.90;;;;;;;15.95;100.00;101541.13;5067069;28;20067;-57
2023/09/08 05:22:27;;;;;;;16.73;12.57;;;;;;;15.95;100.00;101544.63;5067264;28;20055;-57
2023/09/08 05:24:57;;;;;;;15.13;12.73;;;;;;;15.97;100.00;101540.03;5068269;28;20059;-56
2023/09/08 05:27:26;;;;;;;17.17;13.48;;;;;;;15.96;100.00;101545.47;5067306;28;20048;-57
2023/09/08 05:29:55;;;;;;;18.30;13.10;;;;;;;15.97;100.00;101541.88;5067684;28;20149;-57
2023/09/08 05:32:23;;;;;;;17.15;13.30;;;;;;;15.95;100.00;101547.28;5067574;28;20048;-56
2023/09/08 05:34:52;;;;;;;18.52;14.13;;;;;;;15.98;100.00;101543.53;5067664;28;20067;-56
2023/09/08 05:37:20;;;;;;;18.63;14.40;;;;;;;15.95;100.00;101543.78;5070487;28;20044;-57
2023/09/08 05:39:48;;;;;;;21.55;15.32;;;;;;;15.96;100.00;101538.34;5071327;28;20452;-57
2023/09/08 05:42:18;;;;;;;21.67;16.08;;;;;;;15.99;100.00;101542.56;5067895;28;20037;-57
2023/09/08 05:44:47;;;;;;;20.20;14.52;;;;;;;16.04;100.00;101543.91;5068282;28;20040;-57
2023/09/08 05:47:16;;;;;;;21.13;14.93;;;;;;;16.07;100.00;101547.28;5070139;28;20495;-57
2023/09/08 05:49:44;;;;;;;19.35;15.30;;;;;;;16.10;100.00;101545.25;5068227;28;20573;-56
2023/09/08 05:52:13;;;;;;;21.65;15.45;;;;;;;16.04;100.00;101553.69;5065955;28;20041;-57
2023/09/08 05:54:42;;;;;;;20.08;16.10;;;;;;;16.04;100.00;101548.38;5066992;28;20047;-56
2023/09/08 05:57:10;;;;;;;23.60;16.15;;;;;;;16.09;100.00;101555.97;5068642;28;20503;-57
2023/09/08 05:59:40;;;;;;;20.98;15.80;;;;;;;16.13;100.00;101552.97;5069093;28;20067;-57
2023/09/08 06:02:09;;;;;;;22.85;16.77;;;;;;;16.14;100.00;101553.81;5067792;28;20053;-57
2023/09/08 06:04:37;;;;;;;21.05;15.65;;;;;;;16.13;100.00;101558.28;5066912;28;20048;-57
2023/09/08 06:07:06;;;;;;;20.63;15.82;;;;;;;16.21;100.00;101550.56;5067104;28;20463;-57
2023/09/08 06:09:34;;;;;;;20.40;16.25;;;;;;;16.29;100.00;101549.13;5070299;28;20579;-57
2023/09/08 06:12:03;;;;;;;19.75;15.82;;;;;;;16.29;100.00;101557.06;5067369;28;20052;-56
2023/09/08 06:14:32;;;;;;;18.95;15.82;;;;;;;16.37;100.00;101560.84;5067541;28;20068;-57
2023/09/08 06:17:02;;;;;;;18.48;15.82;;;;;;;16.41;100.00;101556.13;5070609;28;20052;-56
2023/09/08 06:19:30;;;;;;;19.08;15.18;;;;;;;16.53;100.00;101556.97;5066073;28;20079;-57
2023/09/08 06:21:59;;;;;;;20.38;15.80;;;;;;;16.63;100.00;101551.75;5068091;28;20094;-56
2023/09/08 06:24:27;;;;;;;21.27;16.20;;;;;;;16.68;100.00;101563.69;5074826;28;20048;-57
2023/09/08 06:26:56;;;;;;;20.45;16.15;;;;;;;16.70;100.00;101551.16;5073229;28;20098;-57
2023/09/08 06:29:25;;;;;;;19.27;16.45;;;;;;;16.86;100.00;101549.91;5071719;28;20044;-56
2023/09/08 06:31:53;;;;;;;20.02;15.52;;;;;;;16.90;100.00;101556.69;5070124;28;20479;-57
2023/09/08 06:34:23;;;;;;;21.20;15.27;;;;;;;17.01;100.00;101559.31;5071308;28;20566;-56
2023/09/08 06:36:52;;;;;;;19.92;15.52;;;;;;;17.08;100.00;101557.00;5070246;28;20060;-56
2023/09/08 06:39:20;;;;;;;22.02;16.05;;;;;;;17.19;100.00;101550.81;5070608;28;20056;-57
2023/09/08 06:41:49;;;;;;;17.70;15.50;;;;;;;17.23;100.00;101552.25;5070482;28;20048;-57
2023/09/08 06:44:18;;;;;;;22.80;16.85;;;;;;;17.33;100.00;101558.50;5071366;28;20060;-57
2023/09/08 06:46:46;;;;;;;20.48;16.35;;;;;;;17.40;100.00;101570.31;5070897;28;20048;-56
2023/09/08 06:49:15;;;;;;;18.95;15.82;;;;;;;17.52;100.00;101563.16;5072317;28;20044;-56
2023/09/08 06:51:47;;;;;;;19.52;15.43;;;;;;;17.58;100.00;101569.75;5074665;28;20507;-56
2023/09/08 06:54:15;;;;;;;20.35;15.93;;;;;;;17.68;100.00;101564.50;5074460;28;20056;-57
2023/09/08 06:56:44;;;;;;;21.23;16.30;;;;;;;17.73;100.00;101563.16;5074583;28;20044;-57
2023/09/08 06:59:12;;;;;;;18.80;14.82;;;;;;;17.86;100.00;101570.09;5069623;28;20064;-57
2023/09/08 07:01:41;;;;;;;20.15;15.68;;;;;;;17.96;100.00;101572.88;5071857;28;20086;-57
2023/09/08 07:04:10;;;;;;;17.73;15.63;;;;;;;18.11;100.00;101574.22;5074594;28;20119;-57
2023/09/08 07:06:41;;;;;;;20.38;15.23;;;;;;;18.42;100.00;101579.56;5074743;28;20060;-62
2023/09/08 07:09:11;;;;;;;19.67;15.70;;;;;;;18.48;100.00;101581.66;5074411;28;20115;-63
2023/09/08 07:11:40;;;;;;;17.95;14.88;;;;;;;18.61;100.00;101581.44;5070047;28;20135;-57
2023/09/08 07:14:09;;;;;;;19.50;16.02;;;;;;;18.73;100.00;101582.16;5071125;28;20044;-56
2023/09/08 07:16:37;;;;;;;18.42;14.38;;;;;;;18.90;100.00;101576.22;5069599;28;20080;-56
2023/09/08 07:19:06;;;;;;;18.48;15.15;;;;;;;19.05;100.00;101579.34;5071330;28;20080;-56
2023/09/08 07:21:35;;;;;;;19.30;14.63;;;;;;;19.18;100.00;101573.75;5073863;28;20056;-56
2023/09/08 07:24:03;;;;;;;18.70;14.13;;;;;;;19.33;100.00;101574.16;5069643;28;20052;-56
2023/09/08 07:26:33;;;;;;;17.02;14.27;;;;;;;19.55;100.00;101585.53;5069316;28;20518;-56
2023/09/08 07:29:02;;;;;;;18.17;13.65;;;;;;;19.67;100.00;101578.25;5072645;28;20083;-56
2023/09/08 07:31:30;;;;;;;17.05;14.10;;;;;;;19.86;100.00;101580.06;5073861;28;20032;-56
2023/09/08 07:33:59;;;;;;;18.55;14.10;;;;;;;20.01;100.00;101588.47;5073159;28;20048;-56
2023/09/08 07:36:35;;;;;;;16.45;13.57;;;;;;;20.18;100.00;101585.06;5073393;28;20048;-56
2023/09/08 07:39:04;;;;;;;14.93;12.82;;;;;;;20.40;100.00;101586.53;5069518;28;20402;-58
2023/09/08 07:41:34;;;;;;;15.63;12.55;;;;;;;20.55;100.00;101589.56;5068051;28;20100;-56
2023/09/08 07:44:03;;;;;;;16.90;13.73;;;;;;;20.77;100.00;101580.31;5069059;28;20072;-57
2023/09/08 07:46:31;;;;;;;17.95;12.55;;;;;;;20.89;100.00;101582.81;5070158;28;20055;-56
2023/09/08 07:49:01;;;;;;;19.30;12.57;;;;;;;21.04;100.00;101581.31;5068505;28;20490;-56
2023/09/08 07:51:29;;;;;;;16.42;12.80;;;;;;;21.23;100.00;101577.66;5070121;28;20432;-56
2023/09/08 07:53:58;;;;;;;17.02;12.70;;;;;;;21.41;100.00;101577.63;5069429;28;20064;-55
2023/09/08 07:56:26;;;;;;;16.92;12.70;;;;;;;21.64;100.00;101577.22;5069812;28;20052;-55
2023/09/08 07:58:56;;;;;;;14.80;11.68;;;;;;;21.89;100.00;101580.88;5070354;28;20048;-55
2023/09/08 08:01:25;;;;;;;15.75;12.23;;;;;;;22.02;100.00;101583.16;5068965;28;20051;-56
2023/09/08 08:03:53;;;;;;;14.88;11.90;;;;;;;22.22;100.00;101575.75;5069972;28;20045;-55
2023/09/08 08:06:22;;;;;;;15.18;12.13;;;;;;;22.40;100.00;101575.72;5070058;28;20041;-57
2023/09/08 08:08:51;;;;;;;15.63;12.73;;;;;;;22.64;100.00;101586.69;5069122;28;20044;-56
2023/09/08 08:11:19;;;;;;;17.35;11.85;;;;;;;22.82;100.00;101579.38;5068068;28;20087;-56
2023/09/08 08:13:48;;;;;;;14.55;11.48;;;;;;;23.02;100.00;101582.63;5070371;28;20197;-56
2023/09/08 08:16:20;;;;;;;15.98;11.93;;;;;;;23.25;100.00;101587.38;5072958;28;20072;-56
2023/09/08 08:18:49;;;;;;;15.95;11.00;;;;;;;23.47;100.00;101585.88;5071406;28;20067;-55
2023/09/08 08:21:17;;;;;;;15.65;12.23;;;;;;;23.59;100.00;101586.41;5069505;28;20040;-55
2023/09/08 08:23:46;;;;;;;15.23;11.70;;;;;;;23.84;100.00;101592.59;5067417;28;20068;-55
2023/09/08 08:26:15;;;;;;;17.92;12.95;;;;;;;23.96;100.00;101587.75;5068845;28;20192;-56
2023/09/08 08:28:44;;;;;;;16.85;12.63;;;;;;;24.17;100.00;101589.84;5069808;28;20072;-55
2023/09/08 08:31:12;;;;;;;15.98;11.77;;;;;;;24.33;100.00;101580.91;5072592;28;20135;-56
2023/09/08 08:33:42;;;;;;;13.20;10.80;;;;;;;24.55;100.00;101589.25;5072601;28;20044;-55
2023/09/08 08:36:11;;;;;;;15.65;12.23;;;;;;;24.76;100.00;101586.81;5072999;28;20040;-55
2023/09/08 08:38:40;;;;;;;14.43;12.60;;;;;;;24.88;100.00;101587.28;5072777;28;20048;-56
2023/09/08 08:41:08;;;;;;;13.32;11.93;;;;;;;24.95;100.00;101590.06;5070993;28;20067;-56
2023/09/08 08:43:38;;;;;;;15.20;12.10;;;;;;;25.23;100.00;101592.25;5069114;28;20680;-56
2023/09/08 08:46:07;;;;;;;16.10;11.85;;;;;;;25.34;100.00;101582.97;5068983;28;20052;-55
2023/09/08 08:48:37;;;;;;;17.23;12.07;;;;;;;25.49;100.00;101583.84;5068741;28;20044;-53
2023/09/08 08:51:09;;;;;;;13.85;11.15;;;;;;;25.69;100.00;101573.41;5071709;28;20131;-56
2023/09/08 08:53:40;;;;;;;16.27;11.52;;;;;;;25.76;100.00;101584.28;5071747;28;20051;-56
2023/09/08 08:56:10;;;;;;;15.07;12.05;;;;;;;26.01;100.00;101582.19;5068945;28;20597;-56
2023/09/08 08:58:40;;;;;;;18.00;11.65;;;;;;;26.13;100.00;101585.28;5067881;28;20499;-55
2023/09/08 09:01:12;;;;;;;13.38;11.27;;;;;;;26.21;100.00;101579.00;5071743;28;20083;-55
2023/09/08 09:03:41;;;;;;;14.60;11.70;;;;;;;26.46;100.00;101577.66;5071755;28;20119;-56
2023/09/08 09:06:12;;;;;;;13.13;11.23;;;;;;;26.54;100.00;101578.59;5068695;28;20048;-54
2023/09/08 09:08:44;;;;;;;15.30;11.75;;;;;;;26.73;100.00;101580.72;5066329;28;20047;-55
2023/09/08 09:11:13;;;;;;;12.90;10.67;;;;;;;26.84;100.00;101575.84;5065166;28;20075;-53
2023/09/08 09:13:41;;;;;;;12.77;10.18;;;;;;;26.97;100.00;101570.63;5069559;28;20048;-55
2023/09/08 09:16:10;;;;;;;12.75;10.00;;;;;;;27.27;100.00;101567.78;5068624;28;20055;-55
2023/09/08 09:18:55;;;;;;;14.30;10.55;;;;;;;27.33;100.00;101570.53;5067816;28;20415;-55
2023/09/08 09:21:43;;;;;;;13.18;10.63;;;;;;;27.48;100.00;101570.47;5066448;28;20076;-54
2023/09/08 09:24:15;;;;;;;16.70;11.82;;;;;;;27.52;100.00;101568.25;5067567;28;20396;-55
2023/09/08 09:26:48;;;;;;;13.38;11.73;;;;;;;27.60;100.00;101565.41;5068348;28;20059;-56
2023/09/08 09:29:16;;;;;;;13.45;11.15;;;;;;;27.56;100.00;101566.00;5070716;28;20052;-54
2023/09/08 09:31:53;;;;;;;15.13;11.82;;;;;;;27.59;100.00;101560.19;5072096;28;20050;-55
2023/09/08 09:34:23;;;;;;;12.52;10.48;;;;;;;27.82;100.00;101568.88;5070122;28;20110;-55
2023/09/08 09:36:55;;;;;;;14.82;10.82;;;;;;;28.13;100.00;101564.13;5067934;28;20056;-55
2023/09/08 09:39:25;;;;;;;13.85;12.00;;;;;;;28.26;100.00;101561.47;5070143;28;20055;-55
2023/09/08 09:41:55;;;;;;;14.77;11.90;;;;;;;28.61;100.00;101563.31;5066165;28;20567;-52
2023/09/08 09:44:25;;;;;;;12.15;10.80;;;;;;;28.81;100.00;101571.53;5068059;28;20056;-55
2023/09/08 09:46:54;;;;;;;12.63;11.15;;;;;;;28.87;100.00;101561.75;5067257;28;20743;-55
2023/09/08 09:49:26;;;;;;;13.02;10.57;;;;;;;29.17;100.00;101554.91;5066243;28;20049;-54
2023/09/08 09:51:56;;;;;;;13.25;10.98;;;;;;;29.31;100.00;101558.50;5066750;28;20048;-55
2023/09/08 09:54:25;;;;;;;13.07;11.68;;;;;;;29.25;100.00;101566.63;5069333;28;20044;-56
2023/09/08 09:56:54;;;;;;;14.10;12.05;;;;;;;29.48;100.00;101568.94;5066915;28;20547;-57
2023/09/08 09:59:23;;;;;;;14.38;11.07;;;;;;;29.49;100.00;101574.13;5067218;28;20136;-57
2023/09/08 10:01:54;;;;;;;15.90;12.25;;;;;;;29.57;100.00;101572.25;5066506;28;20063;-57
2023/09/08 10:04:23;;;;;;;15.48;12.88;;;;;;;29.71;100.00;101573.06;5067284;28;20114;-57
2023/09/08 10:06:53;;;;;;;15.55;13.27;;;;;;;29.80;100.00;101559.06;5071241;28;20040;-57
2023/09/08 10:09:23;;;;;;;13.63;11.50;;;;;;;30.23;100.00;101556.91;5069801;28;20048;-54
2023/09/08 10:11:55;;;;;;;13.70;12.27;;;;;;;30.46;100.00;101561.88;5067131;28;20081;-54
2023/09/08 10:14:24;;;;;;;;;;;;;;;30.37;100.00;101563.97;5067852;28;20101;-56
2023/09/08 10:16:58;;;;;;;17.83;13.20;;;;;;;30.47;100.00;101558.97;5070213;28;20307;-56
2023/09/08 10:19:27;;;;;;;15.25;12.25;;;;;;;30.89;100.00;101558.50;5067401;28;20051;-56
2023/09/08 10:22:00;;;;;;;14.20;11.88;;;;;;;31.23;100.00;101563.75;5065909;28;20055;-55
2023/09/08 10:24:35;;;;;;;17.23;12.75;;;;;;;31.15;100.00;101560.22;5066629;28;20665;-56
2023/09/08 10:27:08;;;;;;;15.50;13.82;;;;;;;31.42;100.00;101554.59;5065635;28;20053;-60
2023/09/08 10:29:38;;;;;;;15.68;12.88;;;;;;;31.48;92.04;101556.44;5070186;28;20047;-56
2023/09/08 10:32:08;;;;;;;15.15;11.38;;;;;;;31.61;90.58;101557.41;5066505;28;20430;-56
2023/09/08 10:34:39;;;;;;;13.98;11.30;;;;;;;31.88;88.11;101551.69;5068085;28;20052;-56
2023/09/08 10:37:20;;;;;;;13.73;11.60;;;;;;;31.91;86.17;101548.53;5071192;28;20110;-56
2023/09/08 10:39:50;;;;;;;15.57;11.85;;;;;;;32.03;88.29;101552.16;5067587;28;20131;-56
2023/09/08 10:42:28;;;;;;;14.90;12.23;;;;;;;32.34;85.54;101551.19;5067132;28;20044;-56
2023/09/08 10:45:03;;;;;;;16.50;12.35;;;;;;;32.54;82.47;101550.09;5066979;28;20047;-55
2023/09/08 10:47:36;;;;;;;12.73;10.20;;;;;;;32.53;82.52;101542.97;5064647;28;20048;-56
2023/09/08 10:50:08;;;;;;;11.85;10.25;;;;;;;32.52;81.68;101549.50;5068575;28;20124;-55
2023/09/08 10:52:36;;;;;;;13.37;10.20;;;;;;;32.55;82.48;101542.78;5063249;28;20139;-54
2023/09/08 10:55:07;;;;;;;11.90;9.25;;;;;;;32.72;84.21;101540.25;5064713;28;20074;-57
2023/09/08 10:57:36;;;;;;;15.13;9.88;;;;;;;32.96;80.67;101544.69;5065438;28;20048;-56
2023/09/08 11:00:11;;;;;;;13.57;9.02;;;;;;;32.50;81.99;101548.88;5063938;28;20087;-56
2023/09/08 11:02:42;;;;;;;9.57;6.45;;;;;;;33.01;79.78;101544.00;5063634;28;20396;-55
2023/09/08 11:05:13;;;;;;;9.30;6.07;;;;;;;33.32;79.62;101540.16;5065688;28;20047;-56
2023/09/08 11:07:43;;;;;;;9.63;6.93;;;;;;;33.70;77.20;101538.88;5061495;28;20048;-55
2023/09/08 11:10:14;;;;;;;10.35;6.90;;;;;;;33.83;76.27;101545.16;5067556;28;20056;-56
2023/09/08 11:12:43;;;;;;;11.48;6.47;;;;;;;33.99;75.93;101538.13;5068198;28;20507;-56
2023/09/08 11:15:11;;;;;;;7.82;6.25;;;;;;;33.97;73.17;101538.38;5071803;28;20040;-56